X  Κλείσε Στοιχεία αεροπορικών μετεωρολογικών δεδομένων METAR     EHRD Rotterdam The Hague Airport
θερμοκρασία
5°C θερμοκρασία
3°C Σημείο δρόσου
87% Υγρασία



Ανεμος
24 KM/H
15 MPH
7 M/S
13 KTS



210°
NND
Τρέχουσες συνθήκες

Συννεφιά Συννεφιά
πίεση 987.81 (hPa) - 29.17 (inHg)
Ορατότητα 6 (μίλι) - 9.7 (km)
Aεροδρόμιο
Κωδικός αεροδρομίου EHRD

Τοποθεσία: Rotterdam The Hague Airport
Απόσταση: 14 (km)

Metar:
EHRD 230425Z AUTO 21013KT 190V250 9999 SCT015/// 05/03 Q0988 NOSIG

ώρα: 23-02-2024 05:25 CET